Time;durP1;ratioP1;P1;durP2;ratioP2;P2;SDS_P1;SDS_P2;PMS_P1;PMS_P2;Temp;Humidity;BMP_temperature;BMP_pressure;BME280_temperature;BME280_humidity;BME280_pressure;Samples;Min_cycle;Max_cycle;Signal;HPM_P1;HPM_P2
2022/05/28 00:00:27;;;;;;;;;8.50;7.25;;;;;17.19;50.56;101825.97;5135275;27;45219;-81
2022/05/28 00:02:52;;;;;;;;;4.25;4.25;;;;;16.98;50.10;101802.41;5117422;27;45099;-79
2022/05/28 00:05:18;;;;;;;;;7.25;6.50;;;;;17.10;50.29;101826.66;5136293;27;45282;-82
2022/05/28 00:07:44;;;;;;;;;4.75;4.75;;;;;17.13;50.52;101833.78;5135045;27;45842;-82
2022/05/28 00:10:12;;;;;;;;;5.00;5.00;;;;;17.11;50.62;101828.44;5129457;27;45152;-81
2022/05/28 00:12:37;;;;;;;;;5.00;5.00;;;;;16.86;50.89;101796.81;5097437;27;45183;-80
2022/05/28 00:15:05;;;;;;;;;5.75;4.25;;;;;16.76;51.18;101779.75;5114860;27;45115;-81
2022/05/28 00:17:31;;;;;;;;;7.50;5.00;;;;;17.06;51.18;101840.72;5115148;27;45938;-79
2022/05/28 00:19:56;;;;;;;;;5.25;5.25;;;;;16.71;51.29;101784.94;5131679;27;45465;-84
2022/05/28 00:22:21;;;;;;;;;6.75;6.75;;;;;16.87;51.49;101822.50;5135966;27;45513;-84
2022/05/28 00:24:47;;;;;;;;;7.25;5.75;;;;;16.69;51.77;101804.28;5136049;27;45054;-83
2022/05/28 00:27:12;;;;;;;;;4.75;4.75;;;;;16.86;51.73;101826.91;5136166;27;46329;-83
2022/05/28 00:29:37;;;;;;;;;7.00;6.33;;;;;16.67;52.00;101790.97;5135918;27;45332;-79
2022/05/28 00:32:04;;;;;;;;;6.00;5.00;;;;;16.73;52.17;101814.16;5135734;27;45134;-81
2022/05/28 00:34:29;;;;;;;;;7.25;7.00;;;;;16.70;52.44;101812.31;5135719;27;45108;-81
2022/05/28 00:36:55;;;;;;;;;6.50;6.25;;;;;16.49;52.30;101788.72;5135270;27;45744;-79
2022/05/28 00:39:21;;;;;;;;;6.75;6.00;;;;;16.48;53.12;101792.25;5135570;27;45145;-82
2022/05/28 00:41:46;;;;;;;;;7.50;7.00;;;;;16.58;53.16;101811.06;5136052;27;45214;-82
2022/05/28 00:44:12;;;;;;;;;4.50;4.50;;;;;16.60;53.41;101822.59;5136319;27;45118;-83
2022/05/28 00:46:38;;;;;;;;;7.00;6.00;;;;;16.56;53.26;101821.66;5135256;27;45732;-80
2022/05/28 00:49:07;;;;;;;;;7.00;7.00;;;;;16.17;53.74;101755.13;5132517;27;45260;-83
2022/05/28 00:51:40;;;;;;;;;7.00;5.75;;;;;16.32;53.33;101794.44;5113596;27;45089;-81
2022/05/28 00:54:08;;;;;;;;;7.25;6.00;;;;;16.10;53.53;101759.34;5132315;27;44982;-84
2022/05/28 00:56:34;;;;;;;;;5.75;5.50;;;;;16.25;53.50;101780.09;5131864;27;45197;-81
2022/05/28 00:59:00;;;;;;;;;7.50;7.00;;;;;16.30;53.46;101786.41;5132288;27;45063;-81
2022/05/28 01:01:29;;;;;;;;;6.25;6.00;;;;;16.12;53.62;101760.28;5131654;27;45056;-82
2022/05/28 01:04:15;;;;;;;;;8.25;7.50;;;;;16.48;53.39;101818.78;5132257;27;45133;-81
2022/05/28 01:06:50;;;;;;;;;8.25;7.25;;;;;16.48;53.17;101823.19;5131641;27;45887;-83
2022/05/28 01:10:03;;;;;;;;;7.50;6.00;;;;;16.44;53.59;101814.22;5132164;27;45060;-83
2022/05/28 01:12:52;;;;;;;;;6.00;6.00;;;;;16.27;53.65;101775.75;5105925;27;45158;-86
2022/05/28 01:15:20;;;;;;;;;6.50;6.00;;;;;16.45;53.66;101805.44;5111465;27;45471;-86
2022/05/28 01:18:01;;;;;;;;;8.00;6.25;;;;;16.11;53.34;101750.53;5110604;27;46759;-81
2022/05/28 01:20:34;;;;;;;;;7.00;6.50;;;;;16.22;53.78;101769.41;5111193;27;45535;-83
2022/05/28 01:23:44;;;;;;;;;7.25;6.00;;;;;16.43;53.76;101809.78;5110422;27;45188;-82
2022/05/28 01:26:18;;;;;;;;;6.25;6.00;;;;;16.41;54.00;101808.88;5110749;27;45215;-82
2022/05/28 01:29:03;;;;;;;;;5.00;5.00;;;;;16.16;53.92;101767.50;5092164;27;47645;-84
2022/05/28 01:31:31;;;;;;;;;8.00;7.25;;;;;16.17;54.25;101758.66;5111253;27;45811;-81
2022/05/28 01:33:59;;;;;;;;;8.50;6.50;;;;;16.03;54.07;101735.28;5092164;27;45113;-84
2022/05/28 01:36:26;;;;;;;;;7.75;7.75;;;;;16.00;54.21;101731.66;5110432;27;45158;-85
2022/05/28 01:38:54;;;;;;;;;5.75;5.75;;;;;15.95;54.22;101729.72;5110718;27;46203;-84
2022/05/28 01:41:22;;;;;;;;;8.50;8.00;;;;;16.33;54.46;101793.56;5111035;27;45095;-81
2022/05/28 01:43:49;;;;;;;;;8.25;7.00;;;;;16.00;54.29;101742.25;5110279;27;45225;-83
2022/05/28 01:46:17;;;;;;;;;9.25;8.00;;;;;16.28;54.76;101796.09;5110859;27;45242;-83
2022/05/28 01:48:45;;;;;;;;;9.00;7.25;;;;;16.21;54.64;101788.84;5110985;27;45928;-85
2022/05/28 01:51:13;;;;;;;;;8.75;7.75;;;;;16.18;54.33;101784.31;5110330;27;45518;-85
2022/05/28 01:56:24;;;;;;;;;8.25;7.00;;;;;16.22;54.71;101785.31;5110594;27;45117;-84
2022/05/28 01:58:51;;;;;;;;;7.25;6.00;;;;;16.04;54.89;101758.28;5110026;27;45955;-83
2022/05/28 02:01:16;;;;;;;;;8.00;7.00;;;;;16.05;54.90;101754.75;5110698;27;45409;-81
2022/05/28 02:03:46;;;;;;;;;9.00;6.25;;;;;16.15;54.99;101780.69;5110746;27;45171;-82
2022/05/28 02:06:12;;;;;;;;;7.75;6.25;;;;;16.12;55.11;101772.66;5110246;27;45145;-83
2022/05/28 02:08:42;;;;;;;;;7.75;7.25;;;;;16.14;55.43;101784.19;5110396;27;45509;-82
2022/05/28 02:11:42;;;;;;;;;6.00;6.00;;;;;16.06;55.05;101786.66;5110510;27;45288;-85
2022/05/28 02:14:26;;;;;;;;;7.00;6.00;;;;;15.71;55.30;101728.19;5106568;27;45276;-85
2022/05/28 02:16:57;;;;;;;;;7.00;7.00;;;;;16.00;55.66;101783.78;5091199;27;44951;-81
2022/05/28 02:19:25;;;;;;;;;6.00;6.00;;;;;15.93;55.80;101782.72;5110167;27;45919;-81
2022/05/28 02:22:24;;;;;;;;;7.50;6.25;;;;;15.82;56.10;101775.31;5109559;27;45878;-86
2022/05/28 02:24:55;;;;;;;;;8.00;7.00;;;;;15.71;56.25;101761.72;5085005;27;45273;-85
2022/05/28 02:27:24;;;;;;;;;6.00;5.75;;;;;15.26;55.96;101698.50;5091872;27;45242;-84
2022/05/28 02:29:50;;;;;;;;;6.75;6.00;;;;;15.37;56.81;101731.53;5109204;27;46340;-86
2022/05/28 02:32:22;;;;;;;;;8.50;8.25;;;;;15.58;56.57;101778.09;5109942;27;45542;-83
2022/05/28 02:34:50;;;;;;;;;9.00;8.00;;;;;15.23;56.73;101717.88;5091627;27;45022;-82
2022/05/28 02:37:21;;;;;;;;;6.00;6.00;;;;;14.95;56.97;101692.25;5110011;27;45993;-85
2022/05/28 02:39:47;;;;;;;;;6.00;6.00;;;;;15.35;57.26;101778.25;5109424;27;46485;-82
2022/05/28 02:42:13;;;;;;;;;6.25;5.25;;;;;14.85;57.37;101694.56;5110025;27;45523;-81
2022/05/28 02:44:38;;;;;;;;;7.00;6.50;;;;;15.06;57.29;101721.72;5091076;27;45130;-85
2022/05/28 02:47:04;;;;;;;;;9.50;8.00;;;;;15.17;57.65;101744.16;5109196;27;45387;-83
2022/05/28 02:49:30;;;;;;;;;7.25;6.75;;;;;15.31;57.52;101768.41;5127440;27;45650;-85
2022/05/28 02:51:55;;;;;;;;;6.00;6.00;;;;;15.09;57.63;101736.81;5129529;27;45593;-82
2022/05/28 02:54:22;;;;;;;;;6.25;6.25;;;;;14.88;57.76;101703.53;5130925;27;45232;-85
2022/05/28 02:56:48;;;;;;;;;7.00;7.00;;;;;14.91;57.66;101719.47;5130298;27;45150;-85
2022/05/28 02:59:13;;;;;;;;;8.50;7.50;;;;;15.06;57.79;101752.59;5130284;27;45308;-85
2022/05/28 03:01:38;;;;;;;;;7.00;6.75;;;;;14.96;58.10;101751.41;5130190;27;45302;-84
2022/05/28 03:04:06;;;;;;;;;7.00;7.00;;;;;14.80;58.24;101722.63;5130240;27;45299;-83
2022/05/28 03:06:32;;;;;;;;;7.00;7.00;;;;;14.91;58.47;101758.28;5129748;27;45131;-84
2022/05/28 03:08:57;;;;;;;;;8.00;7.75;;;;;14.57;58.47;101708.63;5130643;27;45204;-85
2022/05/28 03:11:22;;;;;;;;;7.00;6.50;;;;;14.54;58.85;101705.91;5112727;27;45430;-85
2022/05/28 03:13:48;;;;;;;;;7.00;7.00;;;;;14.71;58.74;101739.09;5109818;27;45344;-84
2022/05/28 03:16:14;;;;;;;;;8.50;7.00;;;;;14.62;58.73;101733.50;5089944;27;45268;-85
2022/05/28 03:18:39;;;;;;;;;6.00;6.00;;;;;14.69;59.28;101754.03;5109213;27;45566;-83
2022/05/28 03:21:07;;;;;;;;;8.00;8.00;;;;;14.50;59.21;101725.16;5109299;27;45206;-84
2022/05/28 03:23:33;;;;;;;;;7.00;7.00;;;;;14.73;59.22;101760.31;5090520;27;45114;-86
2022/05/28 03:26:10;;;;;;;;;8.25;6.00;;;;;14.34;59.21;101694.59;5090551;27;45073;-84
2022/05/28 03:28:35;;;;;;;;;7.75;7.50;;;;;14.46;59.13;101714.41;5108863;27;46656;-83
2022/05/28 03:31:01;;;;;;;;;6.75;6.75;;;;;14.38;58.91;101701.78;5108513;27;45282;-85
2022/05/28 03:33:26;;;;;;;;;6.00;6.00;;;;;14.48;59.38;101726.81;5109475;27;45025;-82
2022/05/28 03:35:51;;;;;;;;;8.00;7.00;;;;;14.67;59.42;101771.59;5108900;27;44997;-85
2022/05/28 03:38:16;;;;;;;;;8.00;8.00;;;;;14.37;58.94;101707.91;5123435;27;46211;-85
2022/05/28 03:40:42;;;;;;;;;6.33;6.33;;;;;14.38;58.86;101715.00;5110642;27;45207;-84
2022/05/28 03:43:09;;;;;;;;;6.75;6.00;;;;;14.45;59.28;101720.56;5129265;27;45038;-83
2022/05/28 03:45:34;;;;;;;;;7.00;7.00;;;;;14.36;59.19;101717.59;5129500;27;45184;-84
2022/05/28 03:48:03;;;;;;;;;7.00;6.75;;;;;14.26;59.03;101704.91;5129371;27;46608;-85
2022/05/28 03:50:28;;;;;;;;;10.25;8.50;;;;;14.45;59.26;101751.41;5129120;27;45199;-86
2022/05/28 03:52:53;;;;;;;;;5.75;5.25;;;;;14.21;59.14;101701.19;5129884;27;45229;-85
2022/05/28 03:55:19;;;;;;;;;5.33;5.00;;;;;14.40;59.00;101745.06;5129363;27;44975;-84
2022/05/28 03:57:46;;;;;;;;;9.00;7.50;;;;;14.25;59.08;101723.38;5129200;27;45657;-83
2022/05/28 04:00:12;;;;;;;;;10.00;9.00;;;;;14.13;59.19;101714.13;5129534;27;45218;-85
2022/05/28 04:02:37;;;;;;;;;6.00;6.00;;;;;14.17;59.31;101715.16;5128904;27;45024;-84
2022/05/28 04:05:04;;;;;;;;;6.00;5.67;;;;;14.18;59.69;101722.22;5129166;27;45332;-84
2022/05/28 04:07:29;;;;;;;;;7.00;5.75;;;;;14.10;59.22;101719.34;5129370;27;45676;-85
2022/05/28 04:09:54;;;;;;;;;8.50;7.75;;;;;14.11;59.34;101721.13;5124628;27;45038;-83
2022/05/28 04:12:20;;;;;;;;;8.25;7.50;;;;;14.08;59.38;101720.09;5108712;27;45158;-85
2022/05/28 04:14:46;;;;;;;;;7.00;7.00;;;;;14.35;59.62;101775.75;5108400;27;45042;-85
2022/05/28 04:17:12;;;;;;;;;8.50;7.50;;;;;14.18;59.45;101748.66;5108547;27;45217;-85
2022/05/28 04:19:37;;;;;;;;;6.00;6.00;;;;;14.13;59.55;101739.69;5089484;27;45454;-85
2022/05/28 04:22:03;;;;;;;;;8.50;7.50;;;;;14.33;59.25;101780.94;5108542;27;45194;-85
2022/05/28 04:24:29;;;;;;;;;9.25;7.50;;;;;13.84;59.49;101707.84;5110899;27;45160;-84
2022/05/28 04:26:54;;;;;;;;;9.25;8.00;;;;;14.24;59.32;101772.72;5119807;27;45200;-85
2022/05/28 04:29:20;;;;;;;;;16.50;13.75;;;;;13.97;59.50;101726.75;5114152;27;44992;-82
2022/05/28 04:31:45;;;;;;;;;9.00;7.67;;;;;14.02;59.54;101746.31;5132767;27;45050;-82
2022/05/28 04:34:10;;;;;;;;;11.75;11.00;;;;;13.95;59.72;101745.22;5132586;27;45035;-82
2022/05/28 04:36:36;;;;;;;;;8.50;7.50;;;;;13.96;59.95;101746.13;5132351;27;45717;-84
2022/05/28 04:39:01;;;;;;;;;7.00;7.00;;;;;13.98;59.73;101745.31;5133006;27;45019;-85
2022/05/28 04:41:27;;;;;;;;;7.00;7.00;;;;;14.08;59.84;101767.69;5132468;27;45047;-84
2022/05/28 04:43:52;;;;;;;;;8.00;8.00;;;;;14.19;59.86;101790.16;5113851;27;45450;-84
2022/05/28 04:46:18;;;;;;;;;8.00;7.00;;;;;14.13;59.80;101782.88;5131929;27;45757;-81
2022/05/28 04:48:43;;;;;;;;;7.25;7.00;;;;;14.20;59.98;101794.59;5112901;27;45173;-83
2022/05/28 04:51:09;;;;;;;;;7.75;7.00;;;;;14.13;60.05;101787.25;5113796;27;45134;-84
2022/05/28 04:53:34;;;;;;;;;7.33;7.33;;;;;14.24;59.88;101804.44;5113782;27;49093;-83
2022/05/28 04:56:00;;;;;;;;;9.50;8.50;;;;;14.19;60.17;101790.16;5131171;27;45811;-83
2022/05/28 04:58:27;;;;;;;;;9.75;9.50;;;;;13.96;60.13;101741.72;5132435;27;44956;-82
2022/05/28 05:00:53;;;;;;;;;5.50;5.50;;;;;14.29;60.22;101802.88;5130880;27;45837;-84
2022/05/28 05:03:19;;;;;;;;;6.50;6.00;;;;;14.08;60.22;101751.84;5114108;27;45098;-82
2022/05/28 05:05:44;;;;;;;;;8.25;7.50;;;;;14.29;60.43;101784.34;5131620;27;45801;-82
2022/05/28 05:08:09;;;;;;;;;8.00;8.00;;;;;14.37;60.24;101789.91;5132382;27;45113;-81
2022/05/28 05:10:35;;;;;;;;;8.25;6.75;;;;;14.17;60.23;101746.88;5121495;27;45236;-84
2022/05/28 05:13:01;;;;;;;;;7.00;6.25;;;;;14.38;60.33;101774.13;5110957;27;45142;-83
2022/05/28 05:15:27;;;;;;;;;7.75;7.50;;;;;14.52;60.22;101786.94;5110982;27;46026;-81
2022/05/28 05:17:53;;;;;;;;;8.50;7.75;;;;;14.42;60.14;101764.50;5109293;27;45385;-82
2022/05/28 05:20:18;;;;;;;;;8.00;7.00;;;;;14.66;60.06;101794.50;5132365;27;45464;-83
2022/05/28 05:22:43;;;;;;;;;7.75;7.00;;;;;14.80;60.31;101805.56;5131498;27;45356;-83
2022/05/28 05:25:11;;;;;;;;;9.00;9.00;;;;;14.64;60.22;101760.94;5131431;27;45552;-82
2022/05/28 05:27:38;;;;;;;;;8.00;7.00;;;;;14.76;60.25;101765.72;5131250;27;45234;-85
2022/05/28 05:30:04;;;;;;;;;8.75;8.00;;;;;14.66;60.17;101743.34;5131761;27;45038;-86
2022/05/28 05:32:29;;;;;;;;;9.00;8.00;;;;;15.03;60.07;101792.22;5131483;27;45031;-82
2022/05/28 05:34:55;;;;;;;;;9.75;8.00;;;;;14.84;60.23;101751.91;5130462;27;45329;-85
2022/05/28 05:37:20;;;;;;;;;11.25;9.50;;;;;14.93;60.40;101768.09;5131954;27;45093;-82
2022/05/28 05:39:46;;;;;;;;;9.00;8.00;;;;;14.96;60.36;101761.97;5130944;27;45344;-85
2022/05/28 05:42:11;;;;;;;;;11.00;11.00;;;;;14.97;60.27;101755.84;5113089;27;45178;-82
2022/05/28 05:44:38;;;;;;;;;7.00;7.00;;;;;15.23;60.14;101796.44;5131203;27;45915;-85
2022/05/28 05:47:05;;;;;;;;;10.50;9.25;;;;;14.95;60.09;101739.91;5131107;27;45717;-82
2022/05/28 05:49:30;;;;;;;;;8.75;7.00;;;;;15.07;60.38;101752.63;5131543;27;45154;-84
2022/05/28 05:51:56;;;;;;;;;11.75;10.00;;;;;15.01;60.26;101718.03;5131434;27;45550;-82
2022/05/28 05:54:24;;;;;;;;;9.50;8.75;;;;;15.41;59.75;101794.34;5131383;27;46083;-84
2022/05/28 05:56:49;;;;;;;;;8.75;7.75;;;;;15.15;60.03;101739.66;5111736;27;45669;-84
2022/05/28 05:59:15;;;;;;;;;8.75;8.25;;;;;15.33;59.97;101766.72;5131771;27;45076;-80
2022/05/28 06:01:40;;;;;;;;;11.75;10.75;;;;;15.33;59.68;101757.91;5112642;27;45297;-85
2022/05/28 06:04:05;;;;;;;;;10.25;9.75;;;;;15.25;59.63;101738.19;5130945;27;45438;-83
2022/05/28 06:06:31;;;;;;;;;10.25;9.75;;;;;15.41;59.80;101757.25;5112385;27;45351;-82
2022/05/28 06:08:56;;;;;;;;;11.75;11.25;;;;;15.49;59.90;101763.69;5131458;27;45031;-81
2022/05/28 06:11:22;;;;;;;;;10.00;10.00;;;;;15.34;59.88;101739.38;5113683;27;45114;-82
2022/05/28 06:13:47;;;;;;;;;12.25;10.00;;;;;15.71;59.72;101789.16;5091447;27;46219;-83
2022/05/28 06:16:13;;;;;;;;;8.75;8.25;;;;;15.46;59.55;101737.09;5110538;27;45221;-82
2022/05/28 06:18:38;;;;;;;;;10.00;10.00;;;;;15.76;59.35;101789.25;5110038;27;45444;-82
2022/05/28 06:21:04;;;;;;;;;9.00;9.00;;;;;15.57;59.47;101744.50;5110768;27;45019;-84
2022/05/28 06:23:30;;;;;;;;;8.25;7.00;;;;;15.71;59.17;101754.69;5110036;27;45851;-86
2022/05/28 06:25:55;;;;;;;;;13.25;11.00;;;;;15.59;59.06;101721.59;5109182;27;45542;-80
2022/05/28 06:28:21;;;;;;;;;10.50;8.50;;;;;15.94;59.44;101784.50;5111267;27;45201;-84
2022/05/28 06:30:49;;;;;;;;;10.00;9.75;;;;;15.95;58.88;101775.69;5090950;27;45307;-82
2022/05/28 06:33:15;;;;;;;;;11.50;10.00;;;;;15.83;58.71;101737.34;5109882;27;45291;-83
2022/05/28 06:35:41;;;;;;;;;11.00;8.50;;;;;16.07;58.95;101771.63;5109707;27;45429;-80
2022/05/28 06:38:08;;;;;;;;;13.25;10.75;;;;;15.98;58.65;101741.34;5110068;27;45251;-81
2022/05/28 06:40:35;;;;;;;;;9.50;9.00;;;;;16.18;58.67;101767.53;5109363;27;45203;-82
2022/05/28 06:43:00;;;;;;;;;9.00;8.25;;;;;16.08;58.74;101757.50;5109925;27;46080;-82
2022/05/28 06:45:25;;;;;;;;;14.00;12.00;;;;;16.09;59.00;101752.25;5109396;27;45190;-81
2022/05/28 06:47:51;;;;;;;;;11.00;10.00;;;;;16.19;58.09;101769.31;5108859;27;45096;-82
2022/05/28 06:53:03;;;;;;;;;13.00;13.00;;;;;16.41;58.28;101786.75;5109336;27;45266;-81
2022/05/28 06:55:28;;;;;;;;;11.50;10.50;;;;;16.05;57.91;101728.25;5109088;27;45503;-82
2022/05/28 06:57:54;;;;;;;;;10.75;10.75;;;;;16.38;58.21;101766.31;5130372;27;45116;-81
2022/05/28 07:00:20;;;;;;;;;13.25;11.75;;;;;16.38;58.15;101755.69;5130030;27;45261;-83
2022/05/28 07:02:46;;;;;;;;;13.00;11.50;;;;;16.23;57.67;101718.16;5129550;27;46026;-82
2022/05/28 07:05:13;;;;;;;;;14.25;12.25;;;;;16.33;58.06;101736.09;5130340;27;45121;-81
2022/05/28 07:07:38;;;;;;;;;14.00;11.75;;;;;16.35;57.88;101734.38;5129760;27;45431;-81
2022/05/28 07:10:05;;;;;;;;;13.00;11.00;;;;;16.41;57.66;101749.59;5123483;27;45090;-82
2022/05/28 07:12:30;;;;;;;;;12.00;11.00;;;;;16.30;57.78;101729.81;5109649;27;45506;-81
2022/05/28 07:14:55;;;;;;;;;12.75;12.00;;;;;16.32;57.77;101729.00;5090315;27;45183;-80
2022/05/28 07:17:22;;;;;;;;;11.50;10.50;;;;;16.37;57.88;101719.41;5109269;27;45093;-81
2022/05/28 07:19:48;;;;;;;;;14.00;12.75;;;;;16.38;57.65;101715.00;5109164;27;45222;-81
2022/05/28 07:22:14;;;;;;;;;10.50;9.50;;;;;16.40;57.91;101715.94;5109051;27;45705;-80
2022/05/28 07:24:40;;;;;;;;;15.00;12.25;;;;;16.58;57.49;101742.97;5108691;27;45225;-81
2022/05/28 07:27:05;;;;;;;;;11.25;11.00;;;;;16.69;56.96;101751.19;5109141;27;45206;-80
2022/05/28 07:29:30;;;;;;;;;12.75;12.25;;;;;16.68;57.05;101752.94;5090906;27;45089;-84
2022/05/28 07:31:56;;;;;;;;;11.75;10.75;;;;;16.63;57.30;101738.66;5108505;27;45216;-80
2022/05/28 07:34:21;;;;;;;;;14.00;12.00;;;;;16.63;57.03;101725.38;5109290;27;45169;-80
2022/05/28 07:36:48;;;;;;;;;14.25;12.75;;;;;16.87;56.52;101757.00;5108740;27;45273;-83
2022/05/28 07:39:13;;;;;;;;;13.50;12.75;;;;;16.69;57.36;101716.69;5108695;27;45004;-84
2022/05/28 07:41:39;;;;;;;;;17.25;14.00;;;;;16.72;56.79;101723.00;5108648;27;45300;-84
2022/05/28 07:44:04;;;;;;;;;14.00;12.00;;;;;16.79;57.13;101731.13;5109127;27;45070;-85
2022/05/28 07:46:31;;;;;;;;;9.75;9.50;;;;;16.87;56.46;101735.78;5115202;27;45225;-82
2022/05/28 07:48:59;;;;;;;;;13.50;12.25;;;;;16.77;56.38;101704.53;5129608;27;45061;-81
2022/05/28 07:51:24;;;;;;;;;11.00;10.75;;;;;17.07;56.35;101738.00;5130086;27;45918;-83
2022/05/28 07:53:50;;;;;;;;;12.25;11.25;;;;;16.88;56.90;101703.03;5128889;27;45039;-81
2022/05/28 07:56:16;;;;;;;;;12.00;11.50;;;;;17.02;56.08;101709.56;5129264;27;45240;-80
2022/05/28 07:58:42;;;;;;;;;15.25;13.25;;;;;17.24;56.00;101742.88;5132013;27;44999;-81
2022/05/28 08:01:08;;;;;;;;;11.25;11.25;;;;;17.06;55.86;101707.00;5132519;27;46196;-81
2022/05/28 08:03:35;;;;;;;;;12.75;10.75;;;;;17.23;55.26;101732.19;5133096;27;45250;-81
2022/05/28 08:06:01;;;;;;;;;8.75;8.00;;;;;17.20;56.00;101718.84;5133234;27;45305;-80
2022/05/28 08:08:27;;;;;;;;;12.50;12.25;;;;;17.46;54.58;101752.22;5113986;27;45080;-85
2022/05/28 08:10:54;;;;;;;;;13.00;12.00;;;;;17.42;54.23;101749.47;5101040;27;47204;-82
2022/05/28 08:13:23;;;;;;;;;10.75;10.50;;;;;17.47;54.76;101753.13;5112415;27;45485;-81
2022/05/28 08:15:50;;;;;;;;;10.75;9.75;;;;;17.34;54.57;101725.38;5111648;27;45533;-85
2022/05/28 08:18:18;;;;;;;;;11.25;10.50;;;;;17.30;54.75;101710.22;5093785;27;45194;-85
2022/05/28 08:23:28;;;;;;;;;10.50;10.00;;;;;17.48;54.64;101745.16;5111700;27;45511;-85
2022/05/28 08:25:53;;;;;;;;;11.75;10.00;;;;;17.40;53.37;101716.66;5111191;27;45012;-84
2022/05/28 08:28:20;;;;;;;;;11.75;11.75;;;;;17.59;53.63;101750.75;5112418;27;45433;-82
2022/05/28 08:30:47;;;;;;;;;13.50;13.50;;;;;17.63;54.47;101754.34;5110839;27;45500;-84
2022/05/28 08:33:14;;;;;;;;;12.75;12.75;;;;;17.69;54.98;101752.75;5112797;27;45466;-82
2022/05/28 08:35:41;;;;;;;;;10.00;9.00;;;;;17.81;54.98;101749.47;5116708;27;45331;-82
2022/05/28 08:38:16;;;;;;;;;11.50;10.75;;;;;17.92;54.32;101745.25;5132463;27;45201;-82
2022/05/28 08:40:47;;;;;;;;;10.50;9.75;;;;;18.08;53.48;101748.22;5132452;27;45985;-81
2022/05/28 08:43:15;;;;;;;;;12.00;10.75;;;;;18.13;53.34;101738.56;5132830;27;45681;-82
2022/05/28 08:45:41;;;;;;;;;11.00;10.00;;;;;18.17;53.45;101730.66;5131614;27;45135;-83
2022/05/28 08:48:06;;;;;;;;;13.50;12.00;;;;;18.35;52.89;101734.56;5132705;27;45025;-82
2022/05/28 08:50:38;;;;;;;;;13.75;11.50;;;;;18.35;52.05;101719.50;5131852;27;46667;-84
2022/05/28 08:53:13;;;;;;;;;10.00;10.00;;;;;18.33;52.54;101721.25;5113177;27;45662;-83
2022/05/28 08:55:47;;;;;;;;;8.50;7.50;;;;;18.25;52.40;101713.09;5113277;27;45308;-83
2022/05/28 08:58:15;;;;;;;;;10.75;10.00;;;;;18.29;51.73;101738.00;5132683;27;45246;-85
2022/05/28 09:00:59;;;;;;;;;10.00;9.25;;;;;18.25;52.34;101730.84;5112269;27;47221;-85
2022/05/28 09:03:43;;;;;;;;;10.00;9.75;;;;;18.02;52.09;101685.16;5113608;27;45189;-81
2022/05/28 09:06:14;;;;;;;;;10.00;9.25;;;;;18.10;52.15;101706.59;5132040;27;45007;-82
2022/05/28 09:08:46;;;;;;;;;14.50;13.50;;;;;18.23;53.08;101727.25;5112475;27;45236;-82
2022/05/28 09:11:13;;;;;;;;;10.00;8.00;;;;;17.91;52.89;101652.16;5115886;27;45413;-83
2022/05/28 09:13:49;;;;;;;;;11.50;10.75;;;;;18.30;52.19;101718.50;5111681;27;45544;-83
2022/05/28 09:16:34;;;;;;;;;11.25;11.00;;;;;18.31;52.65;101701.66;5110921;27;45202;-85
2022/05/28 09:19:34;;;;;;;;;11.00;9.00;;;;;18.37;52.36;101679.59;5089859;27;45338;-83
2022/05/28 09:21:59;;;;;;;;;13.50;11.50;;;;;18.77;51.36;101683.88;5069392;27;47598;-82
2022/05/28 09:24:30;;;;;;;;;10.50;10.25;;;;;18.98;50.64;101681.53;5110719;27;45109;-82
2022/05/28 09:27:05;;;;;;;;;9.00;9.00;;;;;19.37;50.33;101711.41;5112755;27;45064;-83
2022/05/28 09:29:42;;;;;;;;;12.25;11.50;;;;;19.47;50.15;101671.56;5131947;27;45092;-82
2022/05/28 09:32:18;;;;;;;;;14.25;12.25;;;;;19.73;50.11;101679.00;5113035;27;47355;-83
2022/05/28 09:34:56;;;;;;;;;10.25;9.00;;;;;19.95;49.83;101697.09;5131197;27;45332;-84
2022/05/28 09:37:34;;;;;;;;;11.00;10.00;;;;;20.03;49.92;101687.38;5131648;27;45219;-83
2022/05/28 09:40:10;;;;;;;;;8.50;8.25;;;;;20.10;49.57;101688.34;5112429;27;45117;-85
2022/05/28 09:43:02;;;;;;;;;9.00;8.25;;;;;20.07;49.22;101689.19;5131227;27;45507;-83
2022/05/28 09:45:44;;;;;;;;;12.50;11.00;;;;;19.92;49.16;101683.69;5127347;27;45216;-82
2022/05/28 09:48:25;;;;;;;;;11.50;9.25;;;;;19.63;49.16;101672.69;5112760;27;45335;-86
2022/05/28 09:50:51;;;;;;;;;10.00;9.00;;;;;19.48;49.22;101670.69;5132079;27;45075;-85
2022/05/28 09:56:36;;;;;;;;;7.25;7.00;;;;;19.72;48.57;101678.13;5131332;27;45178;-85
2022/05/28 09:59:05;;;;;;;;;9.50;8.00;;;;;19.66;48.09;101623.81;5112882;27;45140;-81
2022/05/28 10:01:31;;;;;;;;;17.00;16.00;;;;;19.95;47.76;101657.06;5127803;27;45281;-84
2022/05/28 10:06:52;;;;;;;;;12.50;10.00;;;;;20.10;47.63;101629.63;5131132;27;45578;-83
2022/05/28 10:09:20;;;;;;;;;7.25;6.00;;;;;20.21;48.05;101629.72;5131543;27;45141;-85
2022/05/28 10:11:55;;;;;;;;;7.75;7.75;;;;;20.15;48.38;101613.63;5092172;27;45412;-83
2022/05/28 10:14:22;;;;;;;;;11.00;10.25;;;;;20.17;47.71;101626.13;5116936;27;45915;-84
2022/05/28 10:16:49;;;;;;;;;12.00;8.25;;;;;20.05;47.64;101634.03;5130393;27;45286;-85
2022/05/28 10:19:26;;;;;;;;;8.00;7.25;;;;;20.02;47.57;101612.63;5131241;27;45182;-84
2022/05/28 10:21:55;;;;;;;;;8.50;8.50;;;;;20.46;47.14;101653.09;5130393;27;45124;-82
2022/05/28 10:24:24;;;;;;;;;8.00;7.75;;;;;20.64;46.76;101655.06;5130820;27;45726;-85
2022/05/28 10:26:53;;;;;;;;;9.75;9.00;;;;;20.63;46.39;101644.34;5130293;27;45246;-84
2022/05/28 10:29:31;;;;;;;;;8.00;8.00;;;;;20.73;45.91;101644.41;5130953;27;45123;-86
2022/05/28 10:31:59;;;;;;;;;7.25;6.50;;;;;20.77;45.28;101648.00;5130662;27;45123;-82
2022/05/28 10:34:33;;;;;;;;;7.50;6.00;;;;;20.73;44.95;101651.53;5130896;27;45742;-84
2022/05/28 10:37:15;;;;;;;;;7.00;6.00;;;;;20.61;44.88;101645.22;5130334;27;45102;-82
2022/05/28 10:39:42;;;;;;;;;7.00;6.25;;;;;20.41;44.74;101629.91;5130905;27;45309;-82
2022/05/28 10:42:11;;;;;;;;;6.25;5.50;;;;;20.26;45.01;101644.00;5131075;27;45166;-85
2022/05/28 10:44:39;;;;;;;;;6.25;5.25;;;;;19.90;45.49;101597.41;5130318;27;46365;-84
2022/05/28 10:47:33;;;;;;;;;11.25;8.00;;;;;20.06;45.63;101639.38;5130286;27;45549;-83
2022/05/28 10:50:28;;;;;;;;;5.25;5.00;;;;;20.05;45.39;101597.56;5107154;27;45092;-83
2022/05/28 10:53:07;;;;;;;;;7.50;7.25;;;;;20.39;44.45;101604.94;5111196;27;45080;-82
2022/05/28 10:55:55;;;;;;;;;5.00;4.25;;;;;20.85;44.52;101617.78;5111192;27;47184;-86
2022/05/28 10:58:28;;;;;;;;;7.00;6.00;;;;;21.04;43.74;101626.81;5112049;27;45609;-82
2022/05/28 11:00:58;;;;;;;;;6.00;5.25;;;;;21.17;43.25;101618.84;5129803;27;45241;-84
2022/05/28 11:04:02;;;;;;;;;6.25;5.75;;;;;21.34;43.21;101614.53;5130475;27;45469;-83
2022/05/28 11:06:31;;;;;;;;;12.00;9.00;;;;;21.46;42.44;101609.22;5129632;27;45911;-83
2022/05/28 11:09:17;;;;;;;;;5.50;5.00;;;;;21.66;42.17;101608.38;5110882;27;45630;-85
2022/05/28 11:12:30;;;;;;;;;5.25;5.00;;;;;21.74;42.31;101594.13;5091310;27;45091;-82
2022/05/28 11:15:10;;;;;;;;;7.00;6.00;;;;;21.80;42.31;101598.59;5102464;27;45169;-84
2022/05/28 11:17:36;;;;;;;;;5.25;5.00;;;;;21.83;42.58;101603.97;5090992;27;46379;-83
2022/05/28 11:20:40;;;;;;;;;5.75;5.75;;;;;21.59;41.34;101559.31;5109108;27;45118;-86
2022/05/28 11:23:13;;;;;;;;;7.25;5.50;;;;;21.77;41.25;101601.25;5109571;27;45207;-83
2022/05/28 11:25:56;;;;;;;;;5.25;4.50;;;;;21.46;41.31;101555.72;5109116;27;45200;-85
2022/05/28 11:28:41;;;;;;;;;4.25;4.00;;;;;21.64;41.36;101592.34;5090503;27;47621;-82
2022/05/28 11:31:18;;;;;;;;;5.50;5.50;;;;;21.51;41.53;101553.06;5079045;27;45606;-83
2022/05/28 11:33:47;;;;;;;;;7.50;7.00;;;;;21.87;41.11;101584.31;5108793;27;45005;-84
2022/05/28 11:36:20;;;;;;;;;5.25;5.00;;;;;22.01;40.99;101584.34;5109031;27;44997;-81
2022/05/28 11:39:05;;;;;;;;;6.25;5.25;;;;;22.13;41.16;101579.06;5090407;27;47825;-83
2022/05/28 11:41:34;;;;;;;;;5.50;4.50;;;;;22.25;40.46;101575.47;5089946;27;45600;-83
2022/05/28 11:44:17;;;;;;;;;5.75;5.00;;;;;22.28;40.77;101559.41;5090404;27;45265;-83